sensor_id;sensor_type;location;lat;lon;timestamp;P1;durP1;ratioP1;P2;durP2;ratioP2
58354;SDS011;44160;49.080;19.302;2022-08-21T00:00:25;12.63;;;6.35;;
58354;SDS011;44160;49.080;19.302;2022-08-21T00:02:53;10.23;;;6.38;;
58354;SDS011;44160;49.080;19.302;2022-08-21T00:05:19;13.15;;;6.35;;
58354;SDS011;44160;49.080;19.302;2022-08-21T00:07:45;12.45;;;6.03;;
58354;SDS011;44160;49.080;19.302;2022-08-21T00:10:12;9.43;;;6.10;;
58354;SDS011;44160;49.080;19.302;2022-08-21T00:12:39;9.43;;;6.85;;
58354;SDS011;44160;49.080;19.302;2022-08-21T00:15:06;17.33;;;7.70;;
58354;SDS011;44160;49.080;19.302;2022-08-21T00:17:32;12.80;;;6.57;;
58354;SDS011;44160;49.080;19.302;2022-08-21T00:19:58;17.90;;;7.07;;
58354;SDS011;44160;49.080;19.302;2022-08-21T00:22:24;10.25;;;7.30;;
58354;SDS011;44160;49.080;19.302;2022-08-21T00:24:50;10.05;;;6.43;;
58354;SDS011;44160;49.080;19.302;2022-08-21T00:27:16;13.38;;;6.68;;
58354;SDS011;44160;49.080;19.302;2022-08-21T00:29:42;13.82;;;7.18;;
58354;SDS011;44160;49.080;19.302;2022-08-21T00:32:08;8.68;;;6.85;;
58354;SDS011;44160;49.080;19.302;2022-08-21T00:34:34;14.68;;;6.65;;
58354;SDS011;44160;49.080;19.302;2022-08-21T00:37:00;11.82;;;6.53;;
58354;SDS011;44160;49.080;19.302;2022-08-21T00:39:26;12.70;;;8.23;;
58354;SDS011;44160;49.080;19.302;2022-08-21T00:41:52;12.43;;;8.25;;
58354;SDS011;44160;49.080;19.302;2022-08-21T00:44:18;11.32;;;7.75;;
58354;SDS011;44160;49.080;19.302;2022-08-21T00:46:44;8.93;;;6.47;;
58354;SDS011;44160;49.080;19.302;2022-08-21T00:49:11;18.83;;;7.22;;
58354;SDS011;44160;49.080;19.302;2022-08-21T00:51:48;11.85;;;6.40;;
58354;SDS011;44160;49.080;19.302;2022-08-21T00:54:15;12.88;;;7.05;;
58354;SDS011;44160;49.080;19.302;2022-08-21T00:56:41;10.02;;;6.38;;
58354;SDS011;44160;49.080;19.302;2022-08-21T00:59:07;12.05;;;7.13;;
58354;SDS011;44160;49.080;19.302;2022-08-21T01:01:34;8.00;;;5.97;;
58354;SDS011;44160;49.080;19.302;2022-08-21T01:04:00;13.48;;;6.88;;
58354;SDS011;44160;49.080;19.302;2022-08-21T01:06:26;8.90;;;6.47;;
58354;SDS011;44160;49.080;19.302;2022-08-21T01:08:52;11.23;;;6.65;;
58354;SDS011;44160;49.080;19.302;2022-08-21T01:11:18;15.68;;;7.82;;
58354;SDS011;44160;49.080;19.302;2022-08-21T01:13:46;8.35;;;6.30;;
58354;SDS011;44160;49.080;19.302;2022-08-21T01:16:13;13.38;;;6.68;;
58354;SDS011;44160;49.080;19.302;2022-08-21T01:18:41;9.50;;;7.20;;
58354;SDS011;44160;49.080;19.302;2022-08-21T01:21:08;14.43;;;7.60;;
58354;SDS011;44160;49.080;19.302;2022-08-21T01:23:35;17.23;;;8.52;;
58354;SDS011;44160;49.080;19.302;2022-08-21T01:26:01;15.23;;;7.90;;
58354;SDS011;44160;49.080;19.302;2022-08-21T01:28:28;10.02;;;7.05;;
58354;SDS011;44160;49.080;19.302;2022-08-21T01:30:57;11.52;;;6.88;;
58354;SDS011;44160;49.080;19.302;2022-08-21T01:33:24;13.32;;;8.00;;
58354;SDS011;44160;49.080;19.302;2022-08-21T01:35:50;16.63;;;7.80;;
58354;SDS011;44160;49.080;19.302;2022-08-21T01:38:16;14.77;;;8.32;;
58354;SDS011;44160;49.080;19.302;2022-08-21T01:40:42;13.52;;;7.88;;
58354;SDS011;44160;49.080;19.302;2022-08-21T01:43:09;13.95;;;7.60;;
58354;SDS011;44160;49.080;19.302;2022-08-21T01:45:35;12.18;;;7.68;;
58354;SDS011;44160;49.080;19.302;2022-08-21T01:48:01;11.25;;;8.13;;
58354;SDS011;44160;49.080;19.302;2022-08-21T01:50:27;14.90;;;8.32;;
58354;SDS011;44160;49.080;19.302;2022-08-21T01:52:53;13.00;;;8.00;;
58354;SDS011;44160;49.080;19.302;2022-08-21T01:55:22;12.20;;;7.82;;
58354;SDS011;44160;49.080;19.302;2022-08-21T01:57:49;10.18;;;7.50;;
58354;SDS011;44160;49.080;19.302;2022-08-21T02:00:17;17.38;;;7.80;;
58354;SDS011;44160;49.080;19.302;2022-08-21T02:02:44;10.90;;;7.35;;
58354;SDS011;44160;49.080;19.302;2022-08-21T02:05:11;14.80;;;7.38;;
58354;SDS011;44160;49.080;19.302;2022-08-21T02:07:38;8.90;;;7.63;;
58354;SDS011;44160;49.080;19.302;2022-08-21T02:10:06;10.05;;;7.68;;
58354;SDS011;44160;49.080;19.302;2022-08-21T02:12:33;13.73;;;7.82;;
58354;SDS011;44160;49.080;19.302;2022-08-21T02:14:59;14.05;;;7.28;;
58354;SDS011;44160;49.080;19.302;2022-08-21T02:17:25;12.75;;;8.77;;
58354;SDS011;44160;49.080;19.302;2022-08-21T02:19:51;14.18;;;7.82;;
58354;SDS011;44160;49.080;19.302;2022-08-21T02:22:17;12.20;;;7.32;;
58354;SDS011;44160;49.080;19.302;2022-08-21T02:24:43;13.70;;;7.18;;
58354;SDS011;44160;49.080;19.302;2022-08-21T02:27:09;14.05;;;8.25;;
58354;SDS011;44160;49.080;19.302;2022-08-21T02:29:35;9.02;;;7.35;;
58354;SDS011;44160;49.080;19.302;2022-08-21T02:32:02;13.88;;;8.38;;
58354;SDS011;44160;49.080;19.302;2022-08-21T02:34:28;12.73;;;7.78;;
58354;SDS011;44160;49.080;19.302;2022-08-21T02:36:54;16.42;;;9.25;;
58354;SDS011;44160;49.080;19.302;2022-08-21T02:39:20;15.45;;;8.95;;
58354;SDS011;44160;49.080;19.302;2022-08-21T02:41:46;18.45;;;9.70;;
58354;SDS011;44160;49.080;19.302;2022-08-21T02:44:12;11.00;;;8.57;;
58354;SDS011;44160;49.080;19.302;2022-08-21T02:46:38;14.15;;;8.15;;
58354;SDS011;44160;49.080;19.302;2022-08-21T02:49:04;16.98;;;9.40;;
58354;SDS011;44160;49.080;19.302;2022-08-21T02:51:30;12.23;;;9.38;;
58354;SDS011;44160;49.080;19.302;2022-08-21T02:53:56;11.00;;;8.88;;
58354;SDS011;44160;49.080;19.302;2022-08-21T02:56:22;14.93;;;9.45;;
58354;SDS011;44160;49.080;19.302;2022-08-21T02:58:49;14.10;;;9.00;;
58354;SDS011;44160;49.080;19.302;2022-08-21T03:01:16;17.52;;;8.57;;
58354;SDS011;44160;49.080;19.302;2022-08-21T03:03:44;12.48;;;8.05;;
58354;SDS011;44160;49.080;19.302;2022-08-21T03:06:11;13.32;;;9.07;;
58354;SDS011;44160;49.080;19.302;2022-08-21T03:08:37;19.13;;;9.63;;
58354;SDS011;44160;49.080;19.302;2022-08-21T03:11:04;12.13;;;9.20;;
58354;SDS011;44160;49.080;19.302;2022-08-21T03:13:30;14.20;;;8.93;;
58354;SDS011;44160;49.080;19.302;2022-08-21T03:15:57;12.15;;;9.30;;
58354;SDS011;44160;49.080;19.302;2022-08-21T03:18:23;14.00;;;9.73;;
58354;SDS011;44160;49.080;19.302;2022-08-21T03:20:49;14.18;;;9.43;;
58354;SDS011;44160;49.080;19.302;2022-08-21T03:23:16;13.95;;;8.63;;
58354;SDS011;44160;49.080;19.302;2022-08-21T03:25:43;13.73;;;9.57;;
58354;SDS011;44160;49.080;19.302;2022-08-21T03:28:11;17.20;;;9.52;;
58354;SDS011;44160;49.080;19.302;2022-08-21T03:30:37;14.80;;;9.48;;
58354;SDS011;44160;49.080;19.302;2022-08-21T03:33:03;14.52;;;10.23;;
58354;SDS011;44160;49.080;19.302;2022-08-21T03:35:29;12.10;;;9.05;;
58354;SDS011;44160;49.080;19.302;2022-08-21T03:37:55;17.05;;;8.60;;
58354;SDS011;44160;49.080;19.302;2022-08-21T03:40:22;12.75;;;8.70;;
58354;SDS011;44160;49.080;19.302;2022-08-21T03:42:49;13.88;;;8.57;;
58354;SDS011;44160;49.080;19.302;2022-08-21T03:45:16;17.27;;;9.95;;
58354;SDS011;44160;49.080;19.302;2022-08-21T03:47:53;13.75;;;9.30;;
58354;SDS011;44160;49.080;19.302;2022-08-21T03:50:20;11.25;;;8.88;;
58354;SDS011;44160;49.080;19.302;2022-08-21T03:52:46;12.85;;;9.02;;
58354;SDS011;44160;49.080;19.302;2022-08-21T03:55:12;18.45;;;9.35;;
58354;SDS011;44160;49.080;19.302;2022-08-21T03:57:38;12.55;;;8.60;;
58354;SDS011;44160;49.080;19.302;2022-08-21T04:00:05;14.90;;;9.57;;
58354;SDS011;44160;49.080;19.302;2022-08-21T04:02:33;14.55;;;8.48;;
58354;SDS011;44160;49.080;19.302;2022-08-21T04:05:00;12.27;;;8.85;;
58354;SDS011;44160;49.080;19.302;2022-08-21T04:07:26;16.02;;;9.85;;
58354;SDS011;44160;49.080;19.302;2022-08-21T04:09:52;13.80;;;9.57;;
58354;SDS011;44160;49.080;19.302;2022-08-21T04:12:19;16.88;;;9.25;;
58354;SDS011;44160;49.080;19.302;2022-08-21T04:14:45;11.45;;;8.82;;
58354;SDS011;44160;49.080;19.302;2022-08-21T04:17:11;12.52;;;7.80;;
58354;SDS011;44160;49.080;19.302;2022-08-21T04:19:37;16.58;;;8.18;;
58354;SDS011;44160;49.080;19.302;2022-08-21T04:22:03;9.80;;;8.32;;
58354;SDS011;44160;49.080;19.302;2022-08-21T04:24:29;16.02;;;9.15;;
58354;SDS011;44160;49.080;19.302;2022-08-21T04:26:55;15.23;;;9.05;;
58354;SDS011;44160;49.080;19.302;2022-08-21T04:29:21;12.98;;;8.82;;
58354;SDS011;44160;49.080;19.302;2022-08-21T04:31:47;14.75;;;9.40;;
58354;SDS011;44160;49.080;19.302;2022-08-21T04:34:13;13.20;;;9.35;;
58354;SDS011;44160;49.080;19.302;2022-08-21T04:36:39;15.32;;;9.75;;
58354;SDS011;44160;49.080;19.302;2022-08-21T04:39:06;13.75;;;8.90;;
58354;SDS011;44160;49.080;19.302;2022-08-21T04:41:32;12.65;;;8.88;;
58354;SDS011;44160;49.080;19.302;2022-08-21T04:43:58;13.85;;;9.23;;
58354;SDS011;44160;49.080;19.302;2022-08-21T04:46:24;13.70;;;9.13;;
58354;SDS011;44160;49.080;19.302;2022-08-21T04:48:50;13.48;;;8.90;;
58354;SDS011;44160;49.080;19.302;2022-08-21T04:51:17;17.15;;;9.10;;
58354;SDS011;44160;49.080;19.302;2022-08-21T04:53:47;13.60;;;9.20;;
58354;SDS011;44160;49.080;19.302;2022-08-21T04:56:24;15.38;;;9.70;;
58354;SDS011;44160;49.080;19.302;2022-08-21T04:58:51;13.25;;;9.15;;
58354;SDS011;44160;49.080;19.302;2022-08-21T05:01:19;13.50;;;9.25;;
58354;SDS011;44160;49.080;19.302;2022-08-21T05:03:46;12.02;;;9.30;;
58354;SDS011;44160;49.080;19.302;2022-08-21T05:06:14;14.98;;;9.60;;
58354;SDS011;44160;49.080;19.302;2022-08-21T05:08:41;14.90;;;10.43;;
58354;SDS011;44160;49.080;19.302;2022-08-21T05:11:08;14.27;;;9.70;;
58354;SDS011;44160;49.080;19.302;2022-08-21T05:13:35;19.42;;;9.82;;
58354;SDS011;44160;49.080;19.302;2022-08-21T05:16:01;15.57;;;9.65;;
58354;SDS011;44160;49.080;19.302;2022-08-21T05:18:27;15.15;;;9.43;;
58354;SDS011;44160;49.080;19.302;2022-08-21T05:20:53;16.05;;;10.15;;
58354;SDS011;44160;49.080;19.302;2022-08-21T05:23:19;15.60;;;10.43;;
58354;SDS011;44160;49.080;19.302;2022-08-21T05:25:45;16.98;;;9.73;;
58354;SDS011;44160;49.080;19.302;2022-08-21T05:28:11;16.73;;;10.15;;
58354;SDS011;44160;49.080;19.302;2022-08-21T05:30:37;16.02;;;10.93;;
58354;SDS011;44160;49.080;19.302;2022-08-21T05:33:05;14.15;;;10.45;;
58354;SDS011;44160;49.080;19.302;2022-08-21T05:35:32;17.83;;;10.50;;
58354;SDS011;44160;49.080;19.302;2022-08-21T05:37:58;17.00;;;10.20;;
58354;SDS011;44160;49.080;19.302;2022-08-21T05:40:25;12.13;;;9.82;;
58354;SDS011;44160;49.080;19.302;2022-08-21T05:42:51;15.38;;;9.48;;
58354;SDS011;44160;49.080;19.302;2022-08-21T05:45:18;13.57;;;9.68;;
58354;SDS011;44160;49.080;19.302;2022-08-21T05:47:44;14.43;;;10.30;;
58354;SDS011;44160;49.080;19.302;2022-08-21T05:50:10;13.73;;;10.15;;
58354;SDS011;44160;49.080;19.302;2022-08-21T05:52:36;16.90;;;9.80;;
58354;SDS011;44160;49.080;19.302;2022-08-21T05:55:03;15.13;;;9.95;;
58354;SDS011;44160;49.080;19.302;2022-08-21T05:57:29;16.40;;;10.80;;
58354;SDS011;44160;49.080;19.302;2022-08-21T05:59:55;19.95;;;11.05;;
58354;SDS011;44160;49.080;19.302;2022-08-21T06:02:21;16.05;;;11.23;;
58354;SDS011;44160;49.080;19.302;2022-08-21T06:04:47;16.08;;;11.25;;
58354;SDS011;44160;49.080;19.302;2022-08-21T06:07:14;16.27;;;11.32;;
58354;SDS011;44160;49.080;19.302;2022-08-21T06:09:40;16.48;;;11.18;;
58354;SDS011;44160;49.080;19.302;2022-08-21T06:12:08;17.83;;;10.70;;
58354;SDS011;44160;49.080;19.302;2022-08-21T06:14:34;18.35;;;10.70;;
58354;SDS011;44160;49.080;19.302;2022-08-21T06:17:01;14.20;;;10.63;;
58354;SDS011;44160;49.080;19.302;2022-08-21T06:19:28;15.15;;;10.57;;
58354;SDS011;44160;49.080;19.302;2022-08-21T06:21:54;17.45;;;9.70;;
58354;SDS011;44160;49.080;19.302;2022-08-21T06:24:20;13.70;;;10.75;;
58354;SDS011;44160;49.080;19.302;2022-08-21T06:26:46;18.23;;;10.88;;
58354;SDS011;44160;49.080;19.302;2022-08-21T06:29:12;13.57;;;11.20;;
58354;SDS011;44160;49.080;19.302;2022-08-21T06:31:42;13.00;;;10.80;;
58354;SDS011;44160;49.080;19.302;2022-08-21T06:34:08;17.80;;;11.70;;
58354;SDS011;44160;49.080;19.302;2022-08-21T06:36:34;13.02;;;10.38;;
58354;SDS011;44160;49.080;19.302;2022-08-21T06:39:00;11.95;;;9.77;;
58354;SDS011;44160;49.080;19.302;2022-08-21T06:41:26;18.80;;;11.27;;
58354;SDS011;44160;49.080;19.302;2022-08-21T06:43:52;14.23;;;9.93;;
58354;SDS011;44160;49.080;19.302;2022-08-21T06:46:19;15.68;;;10.57;;
58354;SDS011;44160;49.080;19.302;2022-08-21T06:48:45;11.15;;;9.77;;
58354;SDS011;44160;49.080;19.302;2022-08-21T06:51:11;15.68;;;10.70;;
58354;SDS011;44160;49.080;19.302;2022-08-21T06:53:37;13.85;;;10.85;;
58354;SDS011;44160;49.080;19.302;2022-08-21T06:56:03;15.80;;;10.07;;
58354;SDS011;44160;49.080;19.302;2022-08-21T06:58:29;15.25;;;10.43;;
58354;SDS011;44160;49.080;19.302;2022-08-21T07:00:56;15.85;;;10.23;;
58354;SDS011;44160;49.080;19.302;2022-08-21T07:03:26;15.82;;;9.95;;
58354;SDS011;44160;49.080;19.302;2022-08-21T07:05:53;12.63;;;9.73;;
58354;SDS011;44160;49.080;19.302;2022-08-21T07:08:19;14.23;;;10.20;;
58354;SDS011;44160;49.080;19.302;2022-08-21T07:10:46;15.30;;;9.80;;
58354;SDS011;44160;49.080;19.302;2022-08-21T07:13:12;12.93;;;9.68;;
58354;SDS011;44160;49.080;19.302;2022-08-21T07:15:39;18.25;;;10.93;;
58354;SDS011;44160;49.080;19.302;2022-08-21T07:18:05;15.18;;;10.98;;
58354;SDS011;44160;49.080;19.302;2022-08-21T07:20:31;14.32;;;10.93;;
58354;SDS011;44160;49.080;19.302;2022-08-21T07:22:59;14.02;;;10.85;;
58354;SDS011;44160;49.080;19.302;2022-08-21T07:25:26;17.23;;;10.00;;
58354;SDS011;44160;49.080;19.302;2022-08-21T07:27:52;14.13;;;10.60;;
58354;SDS011;44160;49.080;19.302;2022-08-21T07:30:19;15.75;;;11.07;;
58354;SDS011;44160;49.080;19.302;2022-08-21T07:32:45;12.68;;;10.52;;
58354;SDS011;44160;49.080;19.302;2022-08-21T07:35:14;14.55;;;11.35;;
58354;SDS011;44160;49.080;19.302;2022-08-21T07:37:40;15.40;;;10.70;;
58354;SDS011;44160;49.080;19.302;2022-08-21T07:40:06;14.07;;;10.88;;
58354;SDS011;44160;49.080;19.302;2022-08-21T07:42:32;13.65;;;10.15;;
58354;SDS011;44160;49.080;19.302;2022-08-21T07:44:58;16.08;;;10.55;;
58354;SDS011;44160;49.080;19.302;2022-08-21T07:47:25;12.02;;;10.40;;
58354;SDS011;44160;49.080;19.302;2022-08-21T07:49:51;12.55;;;10.77;;
58354;SDS011;44160;49.080;19.302;2022-08-21T07:52:17;13.23;;;9.88;;
58354;SDS011;44160;49.080;19.302;2022-08-21T07:54:43;12.93;;;10.02;;
58354;SDS011;44160;49.080;19.302;2022-08-21T07:57:09;11.90;;;9.98;;
58354;SDS011;44160;49.080;19.302;2022-08-21T07:59:35;11.65;;;9.32;;
58354;SDS011;44160;49.080;19.302;2022-08-21T08:02:01;13.65;;;9.20;;
58354;SDS011;44160;49.080;19.302;2022-08-21T08:04:27;12.75;;;9.40;;
58354;SDS011;44160;49.080;19.302;2022-08-21T08:06:53;13.98;;;8.80;;
58354;SDS011;44160;49.080;19.302;2022-08-21T08:09:19;14.63;;;8.35;;
58354;SDS011;44160;49.080;19.302;2022-08-21T08:11:45;14.98;;;9.93;;
58354;SDS011;44160;49.080;19.302;2022-08-21T08:14:11;13.98;;;10.15;;
58354;SDS011;44160;49.080;19.302;2022-08-21T08:16:37;11.25;;;8.85;;
58354;SDS011;44160;49.080;19.302;2022-08-21T08:19:03;13.13;;;9.00;;
58354;SDS011;44160;49.080;19.302;2022-08-21T08:21:29;13.50;;;9.85;;
58354;SDS011;44160;49.080;19.302;2022-08-21T08:23:57;10.82;;;8.77;;
58354;SDS011;44160;49.080;19.302;2022-08-21T08:26:23;10.77;;;8.65;;
58354;SDS011;44160;49.080;19.302;2022-08-21T08:28:49;11.82;;;8.10;;
58354;SDS011;44160;49.080;19.302;2022-08-21T08:31:15;12.07;;;8.68;;
58354;SDS011;44160;49.080;19.302;2022-08-21T08:33:41;12.75;;;8.32;;
58354;SDS011;44160;49.080;19.302;2022-08-21T08:36:17;9.02;;;8.05;;
58354;SDS011;44160;49.080;19.302;2022-08-21T08:38:44;16.33;;;8.40;;
58354;SDS011;44160;49.080;19.302;2022-08-21T08:43:40;10.77;;;8.07;;
58354;SDS011;44160;49.080;19.302;2022-08-21T08:46:12;11.60;;;8.18;;
58354;SDS011;44160;49.080;19.302;2022-08-21T08:51:13;11.35;;;7.45;;
58354;SDS011;44160;49.080;19.302;2022-08-21T08:53:46;15.07;;;8.48;;
58354;SDS011;44160;49.080;19.302;2022-08-21T08:56:13;14.75;;;8.40;;
58354;SDS011;44160;49.080;19.302;2022-08-21T08:58:41;12.13;;;8.35;;
58354;SDS011;44160;49.080;19.302;2022-08-21T09:01:17;11.18;;;9.10;;
58354;SDS011;44160;49.080;19.302;2022-08-21T09:03:44;10.02;;;8.63;;
58354;SDS011;44160;49.080;19.302;2022-08-21T09:09:06;13.20;;;8.65;;
58354;SDS011;44160;49.080;19.302;2022-08-21T09:24:58;12.68;;;9.43;;
58354;SDS011;44160;49.080;19.302;2022-08-21T09:27:28;11.73;;;9.30;;
58354;SDS011;44160;49.080;19.302;2022-08-21T09:29:54;16.10;;;9.85;;
58354;SDS011;44160;49.080;19.302;2022-08-21T09:35:04;11.98;;;8.20;;
58354;SDS011;44160;49.080;19.302;2022-08-21T09:37:31;11.43;;;8.60;;
58354;SDS011;44160;49.080;19.302;2022-08-21T09:39:59;13.38;;;8.57;;
58354;SDS011;44160;49.080;19.302;2022-08-21T09:42:29;13.05;;;8.27;;
58354;SDS011;44160;49.080;19.302;2022-08-21T09:45:05;13.88;;;7.28;;
58354;SDS011;44160;49.080;19.302;2022-08-21T09:47:32;11.00;;;7.55;;
58354;SDS011;44160;49.080;19.302;2022-08-21T09:50:06;9.80;;;7.60;;
58354;SDS011;44160;49.080;19.302;2022-08-21T09:52:33;14.25;;;7.85;;
58354;SDS011;44160;49.080;19.302;2022-08-21T09:54:59;9.70;;;7.32;;
58354;SDS011;44160;49.080;19.302;2022-08-21T09:57:45;10.88;;;7.90;;
58354;SDS011;44160;49.080;19.302;2022-08-21T10:02:48;8.48;;;6.78;;
58354;SDS011;44160;49.080;19.302;2022-08-21T10:05:21;9.75;;;6.80;;
58354;SDS011;44160;49.080;19.302;2022-08-21T10:07:47;8.35;;;6.45;;
58354;SDS011;44160;49.080;19.302;2022-08-21T10:10:15;12.05;;;6.47;;
58354;SDS011;44160;49.080;19.302;2022-08-21T10:20:10;13.68;;;6.13;;
58354;SDS011;44160;49.080;19.302;2022-08-21T10:25:17;10.77;;;6.18;;
58354;SDS011;44160;49.080;19.302;2022-08-21T10:30:47;6.32;;;5.50;;
58354;SDS011;44160;49.080;19.302;2022-08-21T10:49:26;9.30;;;6.28;;
58354;SDS011;44160;49.080;19.302;2022-08-21T10:57:19;8.93;;;6.45;;
58354;SDS011;44160;49.080;19.302;2022-08-21T10:59:50;8.93;;;6.57;;
58354;SDS011;44160;49.080;19.302;2022-08-21T11:05:05;9.48;;;7.05;;
58354;SDS011;44160;49.080;19.302;2022-08-21T11:07:36;6.85;;;5.57;;
58354;SDS011;44160;49.080;19.302;2022-08-21T11:10:05;7.65;;;6.05;;
58354;SDS011;44160;49.080;19.302;2022-08-21T11:12:40;9.40;;;7.20;;
58354;SDS011;44160;49.080;19.302;2022-08-21T11:15:11;9.23;;;6.72;;
58354;SDS011;44160;49.080;19.302;2022-08-21T11:17:54;8.50;;;6.93;;
58354;SDS011;44160;49.080;19.302;2022-08-21T11:20:26;9.30;;;6.45;;
58354;SDS011;44160;49.080;19.302;2022-08-21T11:22:56;7.60;;;6.57;;
58354;SDS011;44160;49.080;19.302;2022-08-21T11:25:29;8.23;;;6.57;;
58354;SDS011;44160;49.080;19.302;2022-08-21T11:30:23;7.57;;;6.38;;
58354;SDS011;44160;49.080;19.302;2022-08-21T11:33:05;7.15;;;6.43;;
58354;SDS011;44160;49.080;19.302;2022-08-21T11:38:35;8.30;;;6.75;;
58354;SDS011;44160;49.080;19.302;2022-08-21T11:43:41;8.23;;;6.50;;
58354;SDS011;44160;49.080;19.302;2022-08-21T11:48:45;11.52;;;6.95;;
58354;SDS011;44160;49.080;19.302;2022-08-21T11:51:25;9.13;;;7.00;;
58354;SDS011;44160;49.080;19.302;2022-08-21T11:56:25;9.02;;;6.97;;
58354;SDS011;44160;49.080;19.302;2022-08-21T11:58:55;12.38;;;7.07;;
58354;SDS011;44160;49.080;19.302;2022-08-21T12:01:25;14.90;;;7.50;;
58354;SDS011;44160;49.080;19.302;2022-08-21T12:06:26;10.77;;;7.55;;
58354;SDS011;44160;49.080;19.302;2022-08-21T12:09:03;13.00;;;7.70;;
58354;SDS011;44160;49.080;19.302;2022-08-21T12:11:30;13.00;;;7.68;;
58354;SDS011;44160;49.080;19.302;2022-08-21T12:16:32;10.75;;;8.57;;
58354;SDS011;44160;49.080;19.302;2022-08-21T12:19:09;9.30;;;7.22;;
58354;SDS011;44160;49.080;19.302;2022-08-21T12:24:31;11.00;;;7.38;;
58354;SDS011;44160;49.080;19.302;2022-08-21T12:27:01;10.18;;;6.78;;
58354;SDS011;44160;49.080;19.302;2022-08-21T12:29:38;10.02;;;6.85;;
58354;SDS011;44160;49.080;19.302;2022-08-21T12:34:41;7.68;;;5.38;;
58354;SDS011;44160;49.080;19.302;2022-08-21T12:39:58;4.57;;;3.70;;
58354;SDS011;44160;49.080;19.302;2022-08-21T12:42:42;5.03;;;3.50;;
58354;SDS011;44160;49.080;19.302;2022-08-21T12:45:14;7.22;;;3.38;;
58354;SDS011;44160;49.080;19.302;2022-08-21T12:47:45;4.43;;;3.10;;
58354;SDS011;44160;49.080;19.302;2022-08-21T12:50:24;5.38;;;2.78;;
58354;SDS011;44160;49.080;19.302;2022-08-21T12:52:59;3.17;;;2.67;;
58354;SDS011;44160;49.080;19.302;2022-08-21T12:55:28;4.00;;;2.35;;
58354;SDS011;44160;49.080;19.302;2022-08-21T12:57:55;5.18;;;2.50;;
58354;SDS011;44160;49.080;19.302;2022-08-21T13:00:27;3.28;;;2.20;;
58354;SDS011;44160;49.080;19.302;2022-08-21T13:02:53;3.63;;;1.80;;
58354;SDS011;44160;49.080;19.302;2022-08-21T13:05:26;2.55;;;1.60;;
58354;SDS011;44160;49.080;19.302;2022-08-21T13:07:53;2.70;;;1.70;;
58354;SDS011;44160;49.080;19.302;2022-08-21T13:12:54;1.90;;;1.35;;
58354;SDS011;44160;49.080;19.302;2022-08-21T13:15:22;2.15;;;1.58;;
58354;SDS011;44160;49.080;19.302;2022-08-21T13:17:49;3.95;;;1.42;;
58354;SDS011;44160;49.080;19.302;2022-08-21T13:22:45;4.95;;;1.70;;
58354;SDS011;44160;49.080;19.302;2022-08-21T13:25:21;4.32;;;1.40;;
58354;SDS011;44160;49.080;19.302;2022-08-21T13:27:58;1.48;;;1.10;;
58354;SDS011;44160;49.080;19.302;2022-08-21T13:30:24;1.60;;;1.13;;
58354;SDS011;44160;49.080;19.302;2022-08-21T13:32:51;1.60;;;1.20;;
58354;SDS011;44160;49.080;19.302;2022-08-21T13:37:44;2.05;;;1.38;;
58354;SDS011;44160;49.080;19.302;2022-08-21T13:40:16;2.65;;;1.10;;
58354;SDS011;44160;49.080;19.302;2022-08-21T13:42:43;5.97;;;1.63;;
58354;SDS011;44160;49.080;19.302;2022-08-21T13:45:14;4.75;;;1.30;;
58354;SDS011;44160;49.080;19.302;2022-08-21T13:50:11;3.58;;;1.10;;
58354;SDS011;44160;49.080;19.302;2022-08-21T13:52:44;2.65;;;1.10;;
58354;SDS011;44160;49.080;19.302;2022-08-21T13:55:12;1.77;;;1.40;;
58354;SDS011;44160;49.080;19.302;2022-08-21T13:57:39;5.57;;;1.35;;
58354;SDS011;44160;49.080;19.302;2022-08-21T14:00:12;1.58;;;1.08;;
58354;SDS011;44160;49.080;19.302;2022-08-21T14:02:40;2.05;;;1.27;;
58354;SDS011;44160;49.080;19.302;2022-08-21T14:05:07;2.22;;;1.17;;
58354;SDS011;44160;49.080;19.302;2022-08-21T14:07:34;6.25;;;1.40;;
58354;SDS011;44160;49.080;19.302;2022-08-21T14:10:03;1.83;;;1.30;;
58354;SDS011;44160;49.080;19.302;2022-08-21T14:12:31;1.63;;;1.10;;
58354;SDS011;44160;49.080;19.302;2022-08-21T14:15:01;1.83;;;0.88;;
58354;SDS011;44160;49.080;19.302;2022-08-21T14:17:29;3.95;;;1.00;;
58354;SDS011;44160;49.080;19.302;2022-08-21T14:19:57;1.05;;;0.90;;
58354;SDS011;44160;49.080;19.302;2022-08-21T14:22:32;2.03;;;1.00;;
58354;SDS011;44160;49.080;19.302;2022-08-21T14:25:06;1.13;;;1.00;;
58354;SDS011;44160;49.080;19.302;2022-08-21T14:27:33;3.42;;;0.85;;
58354;SDS011;44160;49.080;19.302;2022-08-21T14:30:02;2.08;;;1.00;;
58354;SDS011;44160;49.080;19.302;2022-08-21T14:32:36;2.70;;;1.05;;
58354;SDS011;44160;49.080;19.302;2022-08-21T14:35:03;1.10;;;0.98;;
58354;SDS011;44160;49.080;19.302;2022-08-21T14:37:29;1.17;;;1.05;;
58354;SDS011;44160;49.080;19.302;2022-08-21T14:39:55;1.67;;;1.10;;
58354;SDS011;44160;49.080;19.302;2022-08-21T14:42:21;2.28;;;0.70;;
58354;SDS011;44160;49.080;19.302;2022-08-21T14:44:47;1.20;;;0.98;;
58354;SDS011;44160;49.080;19.302;2022-08-21T14:47:13;3.00;;;0.90;;
58354;SDS011;44160;49.080;19.302;2022-08-21T14:49:39;1.35;;;0.82;;
58354;SDS011;44160;49.080;19.302;2022-08-21T14:52:09;1.45;;;1.08;;
58354;SDS011;44160;49.080;19.302;2022-08-21T14:54:35;2.63;;;0.93;;
58354;SDS011;44160;49.080;19.302;2022-08-21T14:57:04;1.08;;;0.90;;
58354;SDS011;44160;49.080;19.302;2022-08-21T14:59:30;1.27;;;1.00;;
58354;SDS011;44160;49.080;19.302;2022-08-21T15:01:57;2.55;;;1.10;;
58354;SDS011;44160;49.080;19.302;2022-08-21T15:04:24;1.30;;;0.80;;
58354;SDS011;44160;49.080;19.302;2022-08-21T15:06:50;1.13;;;1.00;;
58354;SDS011;44160;49.080;19.302;2022-08-21T15:09:16;3.33;;;1.15;;
58354;SDS011;44160;49.080;19.302;2022-08-21T15:11:42;2.08;;;1.20;;
58354;SDS011;44160;49.080;19.302;2022-08-21T15:14:18;1.80;;;1.02;;
58354;SDS011;44160;49.080;19.302;2022-08-21T15:16:45;1.33;;;1.17;;
58354;SDS011;44160;49.080;19.302;2022-08-21T15:19:11;1.67;;;1.10;;
58354;SDS011;44160;49.080;19.302;2022-08-21T15:21:37;3.72;;;1.42;;
58354;SDS011;44160;49.080;19.302;2022-08-21T15:24:03;2.72;;;1.65;;
58354;SDS011;44160;49.080;19.302;2022-08-21T15:26:29;2.05;;;1.30;;
58354;SDS011;44160;49.080;19.302;2022-08-21T15:28:55;3.22;;;1.38;;
58354;SDS011;44160;49.080;19.302;2022-08-21T15:31:21;2.85;;;0.95;;
58354;SDS011;44160;49.080;19.302;2022-08-21T15:33:47;3.22;;;1.90;;
58354;SDS011;44160;49.080;19.302;2022-08-21T15:36:14;2.28;;;0.90;;
58354;SDS011;44160;49.080;19.302;2022-08-21T15:38:40;1.77;;;1.20;;
58354;SDS011;44160;49.080;19.302;2022-08-21T15:41:06;1.52;;;1.00;;
58354;SDS011;44160;49.080;19.302;2022-08-21T15:43:37;0.70;;;0.70;;
58354;SDS011;44160;49.080;19.302;2022-08-21T15:46:05;1.67;;;0.90;;
58354;SDS011;44160;49.080;19.302;2022-08-21T15:48:31;1.70;;;1.00;;
58354;SDS011;44160;49.080;19.302;2022-08-21T15:50:57;1.20;;;0.98;;
58354;SDS011;44160;49.080;19.302;2022-08-21T15:53:23;1.88;;;1.02;;
58354;SDS011;44160;49.080;19.302;2022-08-21T15:55:49;1.50;;;0.75;;
58354;SDS011;44160;49.080;19.302;2022-08-21T15:58:16;4.53;;;1.10;;
58354;SDS011;44160;49.080;19.302;2022-08-21T16:00:43;2.85;;;0.93;;
58354;SDS011;44160;49.080;19.302;2022-08-21T16:03:13;2.50;;;1.10;;
58354;SDS011;44160;49.080;19.302;2022-08-21T16:05:41;0.90;;;0.80;;